Hamaritha — PF2437 — position and weather

sailwx.info

Track history (hours):
 
Tides and Currents Weather Stations Pressure Air Temp Water Temp Dewpoint Dewpoint Depression Visibility Wind Speed Wind Dir Waves Ship Positions

Hamaritha

Last reported at 2017-Jun-27 07:00 UTC. Time now 2017-Jun-27 07:11 UTC.
Position N 51°14' E 004°27'.

Length 86 m.

Type: Ship. MMSI: 244700691.

Date/timePositionNaut miles runAvg speedWind from/ knotsBaromVisibWave heightAir tempDewpointWater temp
2017-Jun-27 07:00N 51°14' E 004°27'0 0.0
2017-Jun-27 06:30N 51°14' E 004°27'0 0.0
2017-Jun-27 06:00N 51°14' E 004°27'0 0.0
2017-Jun-27 05:30N 51°14' E 004°27'0 0.0
2017-Jun-27 05:00N 51°14' E 004°27'0 0.0
2017-Jun-27 04:30N 51°14' E 004°27'0 0.0
2017-Jun-27 04:00N 51°14' E 004°27'0 0.0
2017-Jun-27 03:30N 51°14' E 004°27'0 0.0
2017-Jun-27 03:00N 51°14' E 004°27'0 0.0
2017-Jun-27 02:31N 51°14' E 004°27'0 0.0
2017-Jun-27 02:00N 51°14' E 004°27'0 0.0
2017-Jun-27 01:30N 51°14' E 004°27'0 0.0
2017-Jun-27 01:00N 51°14' E 004°27'0 0.0
2017-Jun-27 00:30N 51°14' E 004°27'0 0.0
2017-Jun-27 00:00N 51°14' E 004°27'0 0.0
2017-Jun-26 23:30N 51°14' E 004°27'0 0.0
2017-Jun-26 23:00N 51°14' E 004°27'0 0.0
2017-Jun-26 22:30N 51°14' E 004°27'0 0.0
2017-Jun-26 22:00N 51°14' E 004°27'0 0.0
2017-Jun-26 21:30N 51°14' E 004°27'0 0.0
2017-Jun-26 21:00N 51°14' E 004°27'0 0.0
2017-Jun-26 20:30N 51°14' E 004°27'0 0.0
2017-Jun-26 20:00N 51°14' E 004°27'0 0.0
2017-Jun-26 19:30N 51°14' E 004°27'0 0.0
2017-Jun-26 19:00N 51°14' E 004°27'0 0.0
2017-Jun-26 18:31N 51°14' E 004°27'0 0.0
2017-Jun-26 18:00N 51°14' E 004°27'0 0.5
2017-Jun-26 17:29N 51°14' E 004°27'3 6.5
2017-Jun-26 17:00N 51°15' E 004°22'4 7.4
2017-Jun-26 16:28N 51°18' E 004°19'23 3.6
2017-Jun-26 09:58N 51°41' E 004°25'1 1.1
2017-Jun-26 09:30N 51°42' E 004°25'1 2.6
2017-Jun-26 09:00N 51°42' E 004°27'3 6.6
2017-Jun-26 08:31N 51°42' E 004°32'4 7.8
2017-Jun-26 08:00N 51°43' E 004°39'4 8.3
2017-Jun-26 07:29N 51°45' E 004°44'4 7.6
2017-Jun-26 07:01N 51°48' E 004°48'3 6.5
2017-Jun-26 06:30N 51°49' E 004°54'5 7.7
2017-Jun-26 05:54N 51°49' E 005°01'12 7.8
2017-Jun-26 04:22N 51°48' E 005°20'4 8.2
2017-Jun-26 03:55N 51°51' E 005°25'4 8.2
2017-Jun-26 03:23N 51°53' E 005°30'1 0.0
2017-Jun-24 09:50N 51°54' E 005°32'3 7.7
2017-Jun-24 09:27N 51°54' E 005°37'4 9.1
2017-Jun-24 09:00N 51°53' E 005°44'4 8.9
2017-Jun-24 08:30N 51°52' E 005°50'4 7.4
2017-Jun-24 08:00N 51°52' E 005°56'3 6.2
2017-Jun-24 07:30N 51°53' E 006°01'5 8.7
2017-Jun-24 06:56N 51°51' E 006°08'4 8.9
2017-Jun-24 06:30N 51°50' E 006°15'4 8.6
2017-Jun-24 06:00N 51°47' E 006°19'4 8.1
2017-Jun-24 05:30N 51°45' E 006°25'4 7.0
2017-Jun-24 05:00N 51°42' E 006°28'4 7.9
2017-Jun-24 04:29N 51°39' E 006°33'3 6.2
2017-Jun-24 03:59N 51°37' E 006°35'3 6.2
2017-Jun-24 03:28N 51°35' E 006°39'3 7.4
2017-Jun-24 03:00N 51°32' E 006°42'3 6.4
2017-Jun-24 02:31N 51°28' E 006°41'4 7.7
2017-Jun-24 02:00N 51°25' E 006°44'8 6.5
2017-Jun-24 00:43N 51°17' E 006°42'2 8.5
2017-Jun-24 00:26N 51°15' E 006°45'2 4.6
2017-Jun-24 00:00N 51°13' E 006°43'4 7.3
2017-Jun-23 23:31N 51°11' E 006°48'15 6.7
2017-Jun-23 21:15N 50°58' E 006°60'2 8.4
2017-Jun-23 20:59N 50°56' E 006°58'4 6.5
2017-Jun-23 20:20N 50°52' E 007°02'3 5.7
2017-Jun-23 19:51N 50°49' E 007°01'3 9.0
2017-Jun-23 19:30N 50°47' E 007°03'  
Track history (hours):
 
Tides and Currents Weather Stations Pressure Air Temp Water Temp Dewpoint Dewpoint Depression Visibility Wind Speed Wind Dir Waves Ship Positions

Hamaritha

Last reported at 2017-Jun-27 07:00 UTC. Time now 2017-Jun-27 07:11 UTC.
Position N 51°14' E 004°27'.

Length 86 m.

Type: Ship. MMSI: 244700691.

Date/timePositionNaut miles runAvg speedWind from/ knotsBaromVisibWave heightAir tempDewpointWater temp
2017-Jun-27 07:00N 51°14' E 004°27'0 0.0
2017-Jun-27 06:30N 51°14' E 004°27'0 0.0
2017-Jun-27 06:00N 51°14' E 004°27'0 0.0
2017-Jun-27 05:30N 51°14' E 004°27'0 0.0
2017-Jun-27 05:00N 51°14' E 004°27'0 0.0
2017-Jun-27 04:30N 51°14' E 004°27'0 0.0
2017-Jun-27 04:00N 51°14' E 004°27'0 0.0
2017-Jun-27 03:30N 51°14' E 004°27'0 0.0
2017-Jun-27 03:00N 51°14' E 004°27'0 0.0
2017-Jun-27 02:31N 51°14' E 004°27'0 0.0
2017-Jun-27 02:00N 51°14' E 004°27'0 0.0
2017-Jun-27 01:30N 51°14' E 004°27'0 0.0
2017-Jun-27 01:00N 51°14' E 004°27'0 0.0
2017-Jun-27 00:30N 51°14' E 004°27'0 0.0
2017-Jun-27 00:00N 51°14' E 004°27'0 0.0
2017-Jun-26 23:30N 51°14' E 004°27'0 0.0
2017-Jun-26 23:00N 51°14' E 004°27'0 0.0
2017-Jun-26 22:30N 51°14' E 004°27'0 0.0
2017-Jun-26 22:00N 51°14' E 004°27'0 0.0
2017-Jun-26 21:30N 51°14' E 004°27'0 0.0
2017-Jun-26 21:00N 51°14' E 004°27'0 0.0
2017-Jun-26 20:30N 51°14' E 004°27'0 0.0
2017-Jun-26 20:00N 51°14' E 004°27'0 0.0
2017-Jun-26 19:30N 51°14' E 004°27'0 0.0
2017-Jun-26 19:00N 51°14' E 004°27'0 0.0
2017-Jun-26 18:31N 51°14' E 004°27'0 0.0
2017-Jun-26 18:00N 51°14' E 004°27'0 0.5
2017-Jun-26 17:29N 51°14' E 004°27'3 6.5
2017-Jun-26 17:00N 51°15' E 004°22'4 7.4
2017-Jun-26 16:28N 51°18' E 004°19'23 3.6
2017-Jun-26 09:58N 51°41' E 004°25'1 1.1
2017-Jun-26 09:30N 51°42' E 004°25'1 2.6
2017-Jun-26 09:00N 51°42' E 004°27'3 6.6
2017-Jun-26 08:31N 51°42' E 004°32'4 7.8
2017-Jun-26 08:00N 51°43' E 004°39'4 8.3
2017-Jun-26 07:29N 51°45' E 004°44'4 7.6
2017-Jun-26 07:01N 51°48' E 004°48'3 6.5
2017-Jun-26 06:30N 51°49' E 004°54'5 7.7
2017-Jun-26 05:54N 51°49' E 005°01'12 7.8
2017-Jun-26 04:22N 51°48' E 005°20'4 8.2
2017-Jun-26 03:55N 51°51' E 005°25'4 8.2
2017-Jun-26 03:23N 51°53' E 005°30'1 0.0
2017-Jun-24 09:50N 51°54' E 005°32'3 7.7
2017-Jun-24 09:27N 51°54' E 005°37'4 9.1
2017-Jun-24 09:00N 51°53' E 005°44'4 8.9
2017-Jun-24 08:30N 51°52' E 005°50'4 7.4
2017-Jun-24 08:00N 51°52' E 005°56'3 6.2
2017-Jun-24 07:30N 51°53' E 006°01'5 8.7
2017-Jun-24 06:56N 51°51' E 006°08'4 8.9
2017-Jun-24 06:30N 51°50' E 006°15'4 8.6
2017-Jun-24 06:00N 51°47' E 006°19'4 8.1
2017-Jun-24 05:30N 51°45' E 006°25'4 7.0
2017-Jun-24 05:00N 51°42' E 006°28'4 7.9
2017-Jun-24 04:29N 51°39' E 006°33'3 6.2
2017-Jun-24 03:59N 51°37' E 006°35'3 6.2
2017-Jun-24 03:28N 51°35' E 006°39'3 7.4
2017-Jun-24 03:00N 51°32' E 006°42'3 6.4
2017-Jun-24 02:31N 51°28' E 006°41'4 7.7
2017-Jun-24 02:00N 51°25' E 006°44'8 6.5
2017-Jun-24 00:43N 51°17' E 006°42'2 8.5
2017-Jun-24 00:26N 51°15' E 006°45'2 4.6
2017-Jun-24 00:00N 51°13' E 006°43'4 7.3
2017-Jun-23 23:31N 51°11' E 006°48'15 6.7
2017-Jun-23 21:15N 50°58' E 006°60'2 8.4
2017-Jun-23 20:59N 50°56' E 006°58'4 6.5
2017-Jun-23 20:20N 50°52' E 007°02'3 5.7
2017-Jun-23 19:51N 50°49' E 007°01'3 9.0
2017-Jun-23 19:30N 50°47' E 007°03'  

Dump ship's entire track history